sensor_id;sensor_type;location;lat;lon;timestamp;P1;durP1;ratioP1;P2;durP2;ratioP2
21084;SDS011;34247;50.064;19.970;2022-12-29T00:00:25;4.85;;;3.17;;
21084;SDS011;34247;50.064;19.970;2022-12-29T00:01:36;2.63;;;2.17;;
21084;SDS011;34247;50.064;19.970;2022-12-29T00:02:44;7.25;;;3.13;;
21084;SDS011;34247;50.064;19.970;2022-12-29T00:03:51;5.57;;;2.50;;
21084;SDS011;34247;50.064;19.970;2022-12-29T00:05:00;8.30;;;3.05;;
21084;SDS011;34247;50.064;19.970;2022-12-29T00:06:06;2.92;;;2.45;;
21084;SDS011;34247;50.064;19.970;2022-12-29T00:07:14;3.33;;;3.13;;
21084;SDS011;34247;50.064;19.970;2022-12-29T00:08:22;6.45;;;2.63;;
21084;SDS011;34247;50.064;19.970;2022-12-29T00:09:44;8.60;;;3.08;;
21084;SDS011;34247;50.064;19.970;2022-12-29T00:10:52;2.65;;;2.38;;
21084;SDS011;34247;50.064;19.970;2022-12-29T00:12:00;6.78;;;3.53;;
21084;SDS011;34247;50.064;19.970;2022-12-29T00:13:08;10.45;;;2.95;;
21084;SDS011;34247;50.064;19.970;2022-12-29T00:14:34;5.53;;;3.25;;
21084;SDS011;34247;50.064;19.970;2022-12-29T00:15:58;5.57;;;3.15;;
21084;SDS011;34247;50.064;19.970;2022-12-29T00:17:03;5.05;;;2.42;;
21084;SDS011;34247;50.064;19.970;2022-12-29T00:18:09;2.70;;;2.50;;
21084;SDS011;34247;50.064;19.970;2022-12-29T00:19:14;4.90;;;2.85;;
21084;SDS011;34247;50.064;19.970;2022-12-29T00:20:40;4.15;;;2.63;;
21084;SDS011;34247;50.064;19.970;2022-12-29T00:22:08;7.68;;;3.33;;
21084;SDS011;34247;50.064;19.970;2022-12-29T00:23:36;4.05;;;2.97;;
21084;SDS011;34247;50.064;19.970;2022-12-29T00:25:02;4.60;;;3.15;;
21084;SDS011;34247;50.064;19.970;2022-12-29T00:26:29;5.63;;;2.55;;
21084;SDS011;34247;50.064;19.970;2022-12-29T00:28:02;6.60;;;3.80;;
21084;SDS011;34247;50.064;19.970;2022-12-29T00:29:36;6.82;;;3.50;;
21084;SDS011;34247;50.064;19.970;2022-12-29T00:31:00;5.28;;;3.47;;
21084;SDS011;34247;50.064;19.970;2022-12-29T00:32:24;3.88;;;2.88;;
21084;SDS011;34247;50.064;19.970;2022-12-29T00:33:50;7.28;;;4.22;;
21084;SDS011;34247;50.064;19.970;2022-12-29T00:35:15;8.55;;;3.53;;
21084;SDS011;34247;50.064;19.970;2022-12-29T00:36:37;5.03;;;3.97;;
21084;SDS011;34247;50.064;19.970;2022-12-29T00:37:47;4.72;;;4.10;;
21084;SDS011;34247;50.064;19.970;2022-12-29T00:39:23;6.60;;;3.75;;
21084;SDS011;34247;50.064;19.970;2022-12-29T00:40:47;5.90;;;3.45;;
21084;SDS011;34247;50.064;19.970;2022-12-29T00:42:14;4.72;;;3.40;;
21084;SDS011;34247;50.064;19.970;2022-12-29T00:43:39;6.38;;;4.13;;
21084;SDS011;34247;50.064;19.970;2022-12-29T00:45:01;6.90;;;4.00;;
21084;SDS011;34247;50.064;19.970;2022-12-29T00:46:13;10.70;;;4.18;;
21084;SDS011;34247;50.064;19.970;2022-12-29T00:47:22;3.65;;;3.08;;
21084;SDS011;34247;50.064;19.970;2022-12-29T00:48:29;4.57;;;3.17;;
21084;SDS011;34247;50.064;19.970;2022-12-29T00:49:54;8.18;;;4.13;;
21084;SDS011;34247;50.064;19.970;2022-12-29T00:51:02;10.65;;;3.22;;
21084;SDS011;34247;50.064;19.970;2022-12-29T00:52:20;2.90;;;2.63;;
21084;SDS011;34247;50.064;19.970;2022-12-29T00:53:27;11.50;;;3.80;;
21084;SDS011;34247;50.064;19.970;2022-12-29T00:54:32;6.57;;;4.00;;
21084;SDS011;34247;50.064;19.970;2022-12-29T00:55:43;4.85;;;3.53;;
21084;SDS011;34247;50.064;19.970;2022-12-29T00:56:50;3.58;;;3.28;;
21084;SDS011;34247;50.064;19.970;2022-12-29T00:57:57;6.38;;;3.58;;
21084;SDS011;34247;50.064;19.970;2022-12-29T00:59:06;6.10;;;3.10;;
21084;SDS011;34247;50.064;19.970;2022-12-29T01:00:17;6.22;;;3.40;;
21084;SDS011;34247;50.064;19.970;2022-12-29T01:01:25;4.10;;;3.50;;
21084;SDS011;34247;50.064;19.970;2022-12-29T01:02:32;3.85;;;3.45;;
21084;SDS011;34247;50.064;19.970;2022-12-29T01:03:38;3.25;;;2.90;;
21084;SDS011;34247;50.064;19.970;2022-12-29T01:04:44;5.45;;;3.20;;
21084;SDS011;34247;50.064;19.970;2022-12-29T01:05:52;7.90;;;4.10;;
21084;SDS011;34247;50.064;19.970;2022-12-29T01:07:06;5.28;;;3.35;;
21084;SDS011;34247;50.064;19.970;2022-12-29T01:08:11;5.70;;;3.42;;
21084;SDS011;34247;50.064;19.970;2022-12-29T01:09:16;8.50;;;4.40;;
21084;SDS011;34247;50.064;19.970;2022-12-29T01:10:40;2.65;;;2.45;;
21084;SDS011;34247;50.064;19.970;2022-12-29T01:11:46;4.53;;;2.90;;
21084;SDS011;34247;50.064;19.970;2022-12-29T01:12:53;6.93;;;2.95;;
21084;SDS011;34247;50.064;19.970;2022-12-29T01:13:57;8.77;;;3.42;;
21084;SDS011;34247;50.064;19.970;2022-12-29T01:15:04;7.65;;;2.88;;
21084;SDS011;34247;50.064;19.970;2022-12-29T01:16:20;9.75;;;3.28;;
21084;SDS011;34247;50.064;19.970;2022-12-29T01:17:26;7.32;;;3.03;;
21084;SDS011;34247;50.064;19.970;2022-12-29T01:18:30;5.13;;;2.97;;
21084;SDS011;34247;50.064;19.970;2022-12-29T01:19:35;2.15;;;2.05;;
21084;SDS011;34247;50.064;19.970;2022-12-29T01:20:39;5.50;;;3.13;;
21084;SDS011;34247;50.064;19.970;2022-12-29T01:21:43;5.40;;;2.80;;
21084;SDS011;34247;50.064;19.970;2022-12-29T01:22:58;3.28;;;2.92;;
21084;SDS011;34247;50.064;19.970;2022-12-29T01:24:02;4.65;;;3.55;;
21084;SDS011;34247;50.064;19.970;2022-12-29T01:25:18;4.18;;;2.67;;
21084;SDS011;34247;50.064;19.970;2022-12-29T01:26:22;3.03;;;2.78;;
21084;SDS011;34247;50.064;19.970;2022-12-29T01:27:31;3.85;;;3.53;;
21084;SDS011;34247;50.064;19.970;2022-12-29T01:28:39;7.65;;;3.30;;
21084;SDS011;34247;50.064;19.970;2022-12-29T01:29:45;4.53;;;2.83;;
21084;SDS011;34247;50.064;19.970;2022-12-29T01:30:49;2.72;;;2.53;;
21084;SDS011;34247;50.064;19.970;2022-12-29T01:31:59;3.92;;;3.20;;
21084;SDS011;34247;50.064;19.970;2022-12-29T01:33:12;3.78;;;2.67;;
21084;SDS011;34247;50.064;19.970;2022-12-29T01:34:30;3.92;;;3.50;;
21084;SDS011;34247;50.064;19.970;2022-12-29T01:35:49;4.72;;;2.65;;
21084;SDS011;34247;50.064;19.970;2022-12-29T01:36:54;3.50;;;2.75;;
21084;SDS011;34247;50.064;19.970;2022-12-29T01:38:10;4.72;;;2.97;;
21084;SDS011;34247;50.064;19.970;2022-12-29T01:39:24;2.70;;;2.35;;
21084;SDS011;34247;50.064;19.970;2022-12-29T01:40:29;2.53;;;2.03;;
21084;SDS011;34247;50.064;19.970;2022-12-29T01:41:38;8.52;;;2.95;;
21084;SDS011;34247;50.064;19.970;2022-12-29T01:42:43;5.53;;;3.03;;
21084;SDS011;34247;50.064;19.970;2022-12-29T01:43:54;4.13;;;2.58;;
21084;SDS011;34247;50.064;19.970;2022-12-29T01:45:07;2.53;;;2.33;;
21084;SDS011;34247;50.064;19.970;2022-12-29T01:46:24;5.82;;;2.60;;
21084;SDS011;34247;50.064;19.970;2022-12-29T01:47:47;2.72;;;2.28;;
21084;SDS011;34247;50.064;19.970;2022-12-29T01:50:28;4.00;;;2.75;;
21084;SDS011;34247;50.064;19.970;2022-12-29T01:51:53;2.92;;;2.72;;
21084;SDS011;34247;50.064;19.970;2022-12-29T01:53:17;3.13;;;2.15;;
21084;SDS011;34247;50.064;19.970;2022-12-29T01:54:31;6.90;;;2.63;;
21084;SDS011;34247;50.064;19.970;2022-12-29T01:55:40;5.57;;;2.75;;
21084;SDS011;34247;50.064;19.970;2022-12-29T01:56:51;5.30;;;3.97;;
21084;SDS011;34247;50.064;19.970;2022-12-29T01:58:00;7.95;;;3.55;;
21084;SDS011;34247;50.064;19.970;2022-12-29T01:59:10;4.47;;;2.35;;
21084;SDS011;34247;50.064;19.970;2022-12-29T02:00:31;4.55;;;2.55;;
21084;SDS011;34247;50.064;19.970;2022-12-29T02:01:43;3.55;;;2.50;;
21084;SDS011;34247;50.064;19.970;2022-12-29T02:02:51;2.42;;;2.30;;
21084;SDS011;34247;50.064;19.970;2022-12-29T02:03:58;3.10;;;2.65;;
21084;SDS011;34247;50.064;19.970;2022-12-29T02:05:15;3.83;;;2.72;;
21084;SDS011;34247;50.064;19.970;2022-12-29T02:06:44;2.50;;;2.28;;
21084;SDS011;34247;50.064;19.970;2022-12-29T02:08:09;2.97;;;2.67;;
21084;SDS011;34247;50.064;19.970;2022-12-29T02:09:23;4.40;;;2.28;;
21084;SDS011;34247;50.064;19.970;2022-12-29T02:10:30;5.95;;;2.55;;
21084;SDS011;34247;50.064;19.970;2022-12-29T02:11:39;6.53;;;2.35;;
21084;SDS011;34247;50.064;19.970;2022-12-29T02:12:44;2.42;;;2.28;;
21084;SDS011;34247;50.064;19.970;2022-12-29T02:13:58;4.63;;;2.67;;
21084;SDS011;34247;50.064;19.970;2022-12-29T02:15:08;3.55;;;2.42;;
21084;SDS011;34247;50.064;19.970;2022-12-29T02:18:29;5.38;;;2.70;;
21084;SDS011;34247;50.064;19.970;2022-12-29T02:22:27;3.25;;;2.00;;
21084;SDS011;34247;50.064;19.970;2022-12-29T02:25:44;3.70;;;2.53;;
21084;SDS011;34247;50.064;19.970;2022-12-29T02:27:51;2.97;;;2.40;;
21084;SDS011;34247;50.064;19.970;2022-12-29T02:29:19;4.97;;;3.03;;
21084;SDS011;34247;50.064;19.970;2022-12-29T02:32:13;4.18;;;2.22;;
21084;SDS011;34247;50.064;19.970;2022-12-29T02:39:24;2.20;;;2.10;;
21084;SDS011;34247;50.064;19.970;2022-12-29T02:43:24;3.80;;;2.72;;
21084;SDS011;34247;50.064;19.970;2022-12-29T02:46:36;5.22;;;2.42;;
21084;SDS011;34247;50.064;19.970;2022-12-29T02:50:51;2.63;;;2.42;;
21084;SDS011;34247;50.064;19.970;2022-12-29T02:52:30;3.45;;;2.53;;
21084;SDS011;34247;50.064;19.970;2022-12-29T02:53:48;3.15;;;2.88;;
21084;SDS011;34247;50.064;19.970;2022-12-29T02:55:27;2.08;;;1.95;;
21084;SDS011;34247;50.064;19.970;2022-12-29T02:56:36;3.03;;;2.30;;
21084;SDS011;34247;50.064;19.970;2022-12-29T02:57:44;3.00;;;2.65;;
21084;SDS011;34247;50.064;19.970;2022-12-29T02:58:53;2.90;;;2.63;;
21084;SDS011;34247;50.064;19.970;2022-12-29T03:00:00;3.97;;;2.50;;
21084;SDS011;34247;50.064;19.970;2022-12-29T03:01:29;3.28;;;1.65;;
21084;SDS011;34247;50.064;19.970;2022-12-29T03:13:45;1.80;;;1.70;;
21084;SDS011;34247;50.064;19.970;2022-12-29T03:15:21;1.55;;;1.45;;
21084;SDS011;34247;50.064;19.970;2022-12-29T03:17:08;3.90;;;2.10;;
21084;SDS011;34247;50.064;19.970;2022-12-29T03:19:47;2.33;;;2.00;;
21084;SDS011;34247;50.064;19.970;2022-12-29T03:21:03;1.95;;;1.77;;
21084;SDS011;34247;50.064;19.970;2022-12-29T03:22:58;2.53;;;1.98;;
21084;SDS011;34247;50.064;19.970;2022-12-29T03:24:12;1.92;;;1.83;;
21084;SDS011;34247;50.064;19.970;2022-12-29T03:25:32;1.60;;;1.50;;
21084;SDS011;34247;50.064;19.970;2022-12-29T03:26:53;1.77;;;1.70;;
21084;SDS011;34247;50.064;19.970;2022-12-29T03:28:23;3.83;;;1.95;;
21084;SDS011;34247;50.064;19.970;2022-12-29T03:29:55;1.70;;;1.60;;
21084;SDS011;34247;50.064;19.970;2022-12-29T03:31:08;1.80;;;1.70;;
21084;SDS011;34247;50.064;19.970;2022-12-29T03:32:23;1.70;;;1.60;;
21084;SDS011;34247;50.064;19.970;2022-12-29T03:33:41;3.17;;;2.15;;
21084;SDS011;34247;50.064;19.970;2022-12-29T03:34:50;2.75;;;1.63;;
21084;SDS011;34247;50.064;19.970;2022-12-29T03:35:59;5.40;;;2.05;;
21084;SDS011;34247;50.064;19.970;2022-12-29T03:37:20;2.55;;;1.90;;
21084;SDS011;34247;50.064;19.970;2022-12-29T03:38:42;2.90;;;2.63;;
21084;SDS011;34247;50.064;19.970;2022-12-29T03:40:06;1.65;;;1.55;;
21084;SDS011;34247;50.064;19.970;2022-12-29T03:41:42;2.65;;;1.48;;
21084;SDS011;34247;50.064;19.970;2022-12-29T03:43:02;2.20;;;2.00;;
21084;SDS011;34247;50.064;19.970;2022-12-29T03:44:12;2.47;;;1.75;;
21084;SDS011;34247;50.064;19.970;2022-12-29T03:45:25;2.22;;;2.13;;
21084;SDS011;34247;50.064;19.970;2022-12-29T03:46:33;3.17;;;1.90;;
21084;SDS011;34247;50.064;19.970;2022-12-29T03:47:41;2.28;;;2.10;;
21084;SDS011;34247;50.064;19.970;2022-12-29T03:48:48;2.17;;;1.98;;
21084;SDS011;34247;50.064;19.970;2022-12-29T03:49:55;1.70;;;1.60;;
21084;SDS011;34247;50.064;19.970;2022-12-29T03:51:03;2.03;;;1.92;;
21084;SDS011;34247;50.064;19.970;2022-12-29T03:52:12;2.95;;;2.55;;
21084;SDS011;34247;50.064;19.970;2022-12-29T03:53:23;2.80;;;2.60;;
21084;SDS011;34247;50.064;19.970;2022-12-29T03:54:40;2.08;;;1.98;;
21084;SDS011;34247;50.064;19.970;2022-12-29T03:55:54;2.75;;;2.22;;
21084;SDS011;34247;50.064;19.970;2022-12-29T03:57:02;3.03;;;2.53;;
21084;SDS011;34247;50.064;19.970;2022-12-29T03:58:10;4.63;;;2.47;;
21084;SDS011;34247;50.064;19.970;2022-12-29T03:59:17;2.78;;;2.13;;
21084;SDS011;34247;50.064;19.970;2022-12-29T04:00:26;3.88;;;1.90;;
21084;SDS011;34247;50.064;19.970;2022-12-29T04:01:35;3.10;;;2.20;;
21084;SDS011;34247;50.064;19.970;2022-12-29T04:02:48;2.72;;;1.73;;
21084;SDS011;34247;50.064;19.970;2022-12-29T04:03:52;4.20;;;2.17;;
21084;SDS011;34247;50.064;19.970;2022-12-29T04:04:59;2.15;;;2.05;;
21084;SDS011;34247;50.064;19.970;2022-12-29T04:06:04;4.65;;;2.33;;
21084;SDS011;34247;50.064;19.970;2022-12-29T04:07:26;2.20;;;2.00;;
21084;SDS011;34247;50.064;19.970;2022-12-29T04:08:32;5.07;;;2.38;;
21084;SDS011;34247;50.064;19.970;2022-12-29T04:09:37;2.75;;;2.35;;
21084;SDS011;34247;50.064;19.970;2022-12-29T04:10:45;3.80;;;2.63;;
21084;SDS011;34247;50.064;19.970;2022-12-29T04:11:53;5.55;;;2.53;;
21084;SDS011;34247;50.064;19.970;2022-12-29T04:12:58;3.13;;;2.25;;
21084;SDS011;34247;50.064;19.970;2022-12-29T04:14:04;3.15;;;2.95;;
21084;SDS011;34247;50.064;19.970;2022-12-29T04:15:10;3.75;;;2.65;;
21084;SDS011;34247;50.064;19.970;2022-12-29T04:16:17;4.88;;;2.78;;
21084;SDS011;34247;50.064;19.970;2022-12-29T04:17:21;6.00;;;3.72;;
21084;SDS011;34247;50.064;19.970;2022-12-29T04:18:27;3.22;;;2.67;;
21084;SDS011;34247;50.064;19.970;2022-12-29T04:19:30;4.47;;;3.38;;
21084;SDS011;34247;50.064;19.970;2022-12-29T04:20:35;3.70;;;2.65;;
21084;SDS011;34247;50.064;19.970;2022-12-29T04:21:58;2.08;;;1.98;;
21084;SDS011;34247;50.064;19.970;2022-12-29T04:23:04;3.00;;;2.60;;
21084;SDS011;34247;50.064;19.970;2022-12-29T04:24:09;2.92;;;2.20;;
21084;SDS011;34247;50.064;19.970;2022-12-29T04:25:14;2.08;;;1.95;;
21084;SDS011;34247;50.064;19.970;2022-12-29T04:26:20;6.13;;;2.45;;
21084;SDS011;34247;50.064;19.970;2022-12-29T04:27:25;4.82;;;2.58;;
21084;SDS011;34247;50.064;19.970;2022-12-29T04:28:30;4.00;;;2.53;;
21084;SDS011;34247;50.064;19.970;2022-12-29T04:29:34;6.05;;;3.33;;
21084;SDS011;34247;50.064;19.970;2022-12-29T04:30:40;7.60;;;2.47;;
21084;SDS011;34247;50.064;19.970;2022-12-29T04:31:51;2.92;;;2.15;;
21084;SDS011;34247;50.064;19.970;2022-12-29T04:32:56;2.20;;;2.10;;
21084;SDS011;34247;50.064;19.970;2022-12-29T04:33:59;2.95;;;2.28;;
21084;SDS011;34247;50.064;19.970;2022-12-29T04:35:07;6.60;;;2.30;;
21084;SDS011;34247;50.064;19.970;2022-12-29T04:36:14;6.05;;;2.53;;
21084;SDS011;34247;50.064;19.970;2022-12-29T04:37:20;3.10;;;2.78;;
21084;SDS011;34247;50.064;19.970;2022-12-29T04:38:25;4.72;;;2.38;;
21084;SDS011;34247;50.064;19.970;2022-12-29T04:39:31;5.00;;;2.97;;
21084;SDS011;34247;50.064;19.970;2022-12-29T04:40:40;2.75;;;2.50;;
21084;SDS011;34247;50.064;19.970;2022-12-29T04:41:47;2.97;;;2.40;;
21084;SDS011;34247;50.064;19.970;2022-12-29T04:42:50;2.70;;;2.50;;
21084;SDS011;34247;50.064;19.970;2022-12-29T04:43:54;2.65;;;2.45;;
21084;SDS011;34247;50.064;19.970;2022-12-29T04:44:58;3.67;;;2.08;;
21084;SDS011;34247;50.064;19.970;2022-12-29T04:46:03;2.88;;;2.63;;
21084;SDS011;34247;50.064;19.970;2022-12-29T04:47:09;3.40;;;2.85;;
21084;SDS011;34247;50.064;19.970;2022-12-29T04:48:14;4.68;;;2.67;;
21084;SDS011;34247;50.064;19.970;2022-12-29T04:49:22;3.28;;;2.97;;
21084;SDS011;34247;50.064;19.970;2022-12-29T04:50:27;4.55;;;3.03;;
21084;SDS011;34247;50.064;19.970;2022-12-29T04:51:32;4.68;;;2.33;;
21084;SDS011;34247;50.064;19.970;2022-12-29T04:52:35;4.00;;;2.08;;
21084;SDS011;34247;50.064;19.970;2022-12-29T04:53:40;5.80;;;2.85;;
21084;SDS011;34247;50.064;19.970;2022-12-29T04:54:44;3.85;;;3.38;;
21084;SDS011;34247;50.064;19.970;2022-12-29T04:55:50;10.07;;;3.13;;
21084;SDS011;34247;50.064;19.970;2022-12-29T04:56:54;7.88;;;3.15;;
21084;SDS011;34247;50.064;19.970;2022-12-29T04:57:58;4.93;;;2.65;;
21084;SDS011;34247;50.064;19.970;2022-12-29T04:59:02;4.18;;;2.70;;
21084;SDS011;34247;50.064;19.970;2022-12-29T05:00:10;4.15;;;3.03;;
21084;SDS011;34247;50.064;19.970;2022-12-29T05:01:16;3.47;;;2.72;;
21084;SDS011;34247;50.064;19.970;2022-12-29T05:02:19;3.30;;;2.72;;
21084;SDS011;34247;50.064;19.970;2022-12-29T05:03:25;5.22;;;2.63;;
21084;SDS011;34247;50.064;19.970;2022-12-29T05:04:28;3.00;;;2.75;;
21084;SDS011;34247;50.064;19.970;2022-12-29T05:05:33;7.70;;;2.60;;
21084;SDS011;34247;50.064;19.970;2022-12-29T05:06:39;5.38;;;2.70;;
21084;SDS011;34247;50.064;19.970;2022-12-29T05:07:43;2.47;;;2.28;;
21084;SDS011;34247;50.064;19.970;2022-12-29T05:08:47;3.97;;;2.60;;
21084;SDS011;34247;50.064;19.970;2022-12-29T05:09:51;2.70;;;2.58;;
21084;SDS011;34247;50.064;19.970;2022-12-29T05:10:56;2.47;;;2.28;;
21084;SDS011;34247;50.064;19.970;2022-12-29T05:12:00;2.53;;;2.33;;
21084;SDS011;34247;50.064;19.970;2022-12-29T05:13:04;2.00;;;1.77;;
21084;SDS011;34247;50.064;19.970;2022-12-29T05:14:09;7.38;;;2.45;;
21084;SDS011;34247;50.064;19.970;2022-12-29T05:15:13;2.30;;;2.05;;
21084;SDS011;34247;50.064;19.970;2022-12-29T05:16:16;3.60;;;2.38;;
21084;SDS011;34247;50.064;19.970;2022-12-29T05:17:20;3.22;;;2.92;;
21084;SDS011;34247;50.064;19.970;2022-12-29T05:18:28;2.17;;;2.08;;
21084;SDS011;34247;50.064;19.970;2022-12-29T05:19:32;1.85;;;1.75;;
21084;SDS011;34247;50.064;19.970;2022-12-29T05:20:38;3.60;;;3.30;;
21084;SDS011;34247;50.064;19.970;2022-12-29T05:21:42;1.80;;;1.70;;
21084;SDS011;34247;50.064;19.970;2022-12-29T05:22:47;2.17;;;2.08;;
21084;SDS011;34247;50.064;19.970;2022-12-29T05:23:51;3.33;;;2.35;;
21084;SDS011;34247;50.064;19.970;2022-12-29T05:24:55;2.42;;;2.22;;
21084;SDS011;34247;50.064;19.970;2022-12-29T05:26:00;1.80;;;1.70;;
21084;SDS011;34247;50.064;19.970;2022-12-29T05:27:03;2.97;;;2.00;;
21084;SDS011;34247;50.064;19.970;2022-12-29T05:28:10;1.77;;;1.67;;
21084;SDS011;34247;50.064;19.970;2022-12-29T05:29:16;3.10;;;2.65;;
21084;SDS011;34247;50.064;19.970;2022-12-29T05:30:22;1.90;;;1.80;;
21084;SDS011;34247;50.064;19.970;2022-12-29T05:31:25;2.08;;;1.88;;
21084;SDS011;34247;50.064;19.970;2022-12-29T05:32:31;1.83;;;1.73;;
21084;SDS011;34247;50.064;19.970;2022-12-29T05:33:36;2.10;;;1.90;;
21084;SDS011;34247;50.064;19.970;2022-12-29T05:34:41;3.67;;;2.38;;
21084;SDS011;34247;50.064;19.970;2022-12-29T05:35:45;1.70;;;1.60;;
21084;SDS011;34247;50.064;19.970;2022-12-29T05:36:49;2.70;;;2.00;;
21084;SDS011;34247;50.064;19.970;2022-12-29T05:37:52;5.55;;;2.28;;
21084;SDS011;34247;50.064;19.970;2022-12-29T05:38:56;3.92;;;1.98;;
21084;SDS011;34247;50.064;19.970;2022-12-29T05:40:00;2.40;;;2.20;;
21084;SDS011;34247;50.064;19.970;2022-12-29T05:41:04;2.45;;;2.25;;
21084;SDS011;34247;50.064;19.970;2022-12-29T05:42:07;2.17;;;2.08;;
21084;SDS011;34247;50.064;19.970;2022-12-29T05:43:12;2.10;;;2.00;;
21084;SDS011;34247;50.064;19.970;2022-12-29T05:44:16;2.15;;;2.05;;
21084;SDS011;34247;50.064;19.970;2022-12-29T05:45:20;1.90;;;1.80;;
21084;SDS011;34247;50.064;19.970;2022-12-29T05:46:23;2.20;;;2.03;;
21084;SDS011;34247;50.064;19.970;2022-12-29T05:47:29;2.15;;;2.00;;
21084;SDS011;34247;50.064;19.970;2022-12-29T05:48:34;2.70;;;2.50;;
21084;SDS011;34247;50.064;19.970;2022-12-29T05:49:40;1.98;;;1.88;;
21084;SDS011;34247;50.064;19.970;2022-12-29T05:50:47;2.13;;;2.03;;
21084;SDS011;34247;50.064;19.970;2022-12-29T05:51:54;3.55;;;2.50;;
21084;SDS011;34247;50.064;19.970;2022-12-29T05:53:00;1.70;;;1.58;;
21084;SDS011;34247;50.064;19.970;2022-12-29T05:54:04;2.00;;;1.90;;
21084;SDS011;34247;50.064;19.970;2022-12-29T05:55:08;2.50;;;2.25;;
21084;SDS011;34247;50.064;19.970;2022-12-29T05:56:11;3.38;;;2.13;;
21084;SDS011;34247;50.064;19.970;2022-12-29T05:57:15;4.43;;;2.40;;
21084;SDS011;34247;50.064;19.970;2022-12-29T05:58:19;3.38;;;2.20;;
21084;SDS011;34247;50.064;19.970;2022-12-29T05:59:22;2.25;;;1.85;;
21084;SDS011;34247;50.064;19.970;2022-12-29T06:00:26;2.58;;;2.35;;
21084;SDS011;34247;50.064;19.970;2022-12-29T06:01:31;4.25;;;2.67;;
21084;SDS011;34247;50.064;19.970;2022-12-29T06:02:40;3.83;;;1.95;;
21084;SDS011;34247;50.064;19.970;2022-12-29T06:03:44;1.90;;;1.80;;
21084;SDS011;34247;50.064;19.970;2022-12-29T06:04:51;3.78;;;2.17;;
21084;SDS011;34247;50.064;19.970;2022-12-29T06:05:55;2.08;;;1.98;;
21084;SDS011;34247;50.064;19.970;2022-12-29T06:06:59;2.22;;;1.90;;
21084;SDS011;34247;50.064;19.970;2022-12-29T06:08:04;6.32;;;2.25;;
21084;SDS011;34247;50.064;19.970;2022-12-29T06:09:10;1.90;;;1.80;;
21084;SDS011;34247;50.064;19.970;2022-12-29T06:10:21;4.72;;;2.42;;
21084;SDS011;34247;50.064;19.970;2022-12-29T06:11:25;2.20;;;2.08;;
21084;SDS011;34247;50.064;19.970;2022-12-29T06:12:30;2.13;;;2.03;;
21084;SDS011;34247;50.064;19.970;2022-12-29T06:13:35;2.45;;;2.10;;
21084;SDS011;34247;50.064;19.970;2022-12-29T06:14:42;3.03;;;2.40;;
21084;SDS011;34247;50.064;19.970;2022-12-29T06:15:47;2.40;;;2.20;;
21084;SDS011;34247;50.064;19.970;2022-12-29T06:16:52;3.13;;;2.10;;
21084;SDS011;34247;50.064;19.970;2022-12-29T06:17:56;3.65;;;2.70;;
21084;SDS011;34247;50.064;19.970;2022-12-29T06:19:00;4.80;;;2.50;;
21084;SDS011;34247;50.064;19.970;2022-12-29T06:20:05;2.50;;;2.28;;
21084;SDS011;34247;50.064;19.970;2022-12-29T06:21:11;2.10;;;2.00;;
21084;SDS011;34247;50.064;19.970;2022-12-29T06:22:16;1.70;;;1.60;;
21084;SDS011;34247;50.064;19.970;2022-12-29T06:23:20;2.40;;;2.20;;
21084;SDS011;34247;50.064;19.970;2022-12-29T06:24:26;2.28;;;2.08;;
21084;SDS011;34247;50.064;19.970;2022-12-29T06:25:31;5.55;;;2.80;;
21084;SDS011;34247;50.064;19.970;2022-12-29T06:26:37;1.70;;;1.65;;
21084;SDS011;34247;50.064;19.970;2022-12-29T06:27:43;2.25;;;2.15;;
21084;SDS011;34247;50.064;19.970;2022-12-29T06:28:49;1.90;;;1.80;;
21084;SDS011;34247;50.064;19.970;2022-12-29T06:29:57;2.20;;;2.10;;
21084;SDS011;34247;50.064;19.970;2022-12-29T06:31:04;2.42;;;2.25;;
21084;SDS011;34247;50.064;19.970;2022-12-29T06:32:12;2.17;;;2.08;;
21084;SDS011;34247;50.064;19.970;2022-12-29T06:33:16;4.07;;;2.58;;
21084;SDS011;34247;50.064;19.970;2022-12-29T06:34:22;6.68;;;2.50;;
21084;SDS011;34247;50.064;19.970;2022-12-29T06:35:26;3.15;;;2.78;;
21084;SDS011;34247;50.064;19.970;2022-12-29T06:36:33;2.15;;;2.05;;
21084;SDS011;34247;50.064;19.970;2022-12-29T06:37:37;2.15;;;1.88;;
21084;SDS011;34247;50.064;19.970;2022-12-29T06:38:41;2.03;;;1.83;;
21084;SDS011;34247;50.064;19.970;2022-12-29T06:39:45;1.80;;;1.70;;
21084;SDS011;34247;50.064;19.970;2022-12-29T06:40:51;1.92;;;1.83;;
21084;SDS011;34247;50.064;19.970;2022-12-29T06:41:55;2.22;;;2.10;;
21084;SDS011;34247;50.064;19.970;2022-12-29T06:42:58;1.80;;;1.70;;
21084;SDS011;34247;50.064;19.970;2022-12-29T06:44:02;4.10;;;2.35;;
21084;SDS011;34247;50.064;19.970;2022-12-29T06:45:07;3.47;;;2.00;;
21084;SDS011;34247;50.064;19.970;2022-12-29T06:46:19;4.53;;;2.20;;
21084;SDS011;34247;50.064;19.970;2022-12-29T06:47:23;3.22;;;2.40;;
21084;SDS011;34247;50.064;19.970;2022-12-29T06:48:27;2.17;;;1.98;;
21084;SDS011;34247;50.064;19.970;2022-12-29T06:49:31;4.13;;;2.75;;
21084;SDS011;34247;50.064;19.970;2022-12-29T06:50:41;2.38;;;2.28;;
21084;SDS011;34247;50.064;19.970;2022-12-29T06:51:45;2.50;;;2.05;;
21084;SDS011;34247;50.064;19.970;2022-12-29T06:52:49;2.75;;;2.08;;
21084;SDS011;34247;50.064;19.970;2022-12-29T06:53:52;6.15;;;2.00;;
21084;SDS011;34247;50.064;19.970;2022-12-29T06:54:57;3.55;;;1.80;;
21084;SDS011;34247;50.064;19.970;2022-12-29T06:56:01;6.35;;;2.33;;
21084;SDS011;34247;50.064;19.970;2022-12-29T06:57:07;4.30;;;2.35;;
21084;SDS011;34247;50.064;19.970;2022-12-29T06:58:21;3.08;;;2.55;;
21084;SDS011;34247;50.064;19.970;2022-12-29T06:59:25;3.42;;;2.35;;
21084;SDS011;34247;50.064;19.970;2022-12-29T07:00:29;15.30;;;2.92;;
21084;SDS011;34247;50.064;19.970;2022-12-29T07:01:33;4.53;;;2.67;;
21084;SDS011;34247;50.064;19.970;2022-12-29T07:02:40;5.72;;;2.50;;
21084;SDS011;34247;50.064;19.970;2022-12-29T07:03:45;2.83;;;2.15;;
21084;SDS011;34247;50.064;19.970;2022-12-29T07:04:56;3.53;;;2.08;;
21084;SDS011;34247;50.064;19.970;2022-12-29T07:06:01;2.20;;;2.10;;
21084;SDS011;34247;50.064;19.970;2022-12-29T07:07:07;2.25;;;2.05;;
21084;SDS011;34247;50.064;19.970;2022-12-29T07:08:12;2.53;;;2.33;;
21084;SDS011;34247;50.064;19.970;2022-12-29T07:09:16;2.38;;;2.28;;
21084;SDS011;34247;50.064;19.970;2022-12-29T07:10:22;4.53;;;2.28;;
21084;SDS011;34247;50.064;19.970;2022-12-29T07:11:26;4.97;;;2.83;;
21084;SDS011;34247;50.064;19.970;2022-12-29T07:12:30;2.72;;;2.50;;
21084;SDS011;34247;50.064;19.970;2022-12-29T07:13:34;2.03;;;1.92;;
21084;SDS011;34247;50.064;19.970;2022-12-29T07:14:40;2.40;;;2.15;;
21084;SDS011;34247;50.064;19.970;2022-12-29T07:15:45;2.80;;;2.38;;
21084;SDS011;34247;50.064;19.970;2022-12-29T07:16:52;3.30;;;2.65;;
21084;SDS011;34247;50.064;19.970;2022-12-29T07:17:58;3.03;;;2.83;;
21084;SDS011;34247;50.064;19.970;2022-12-29T07:19:04;2.58;;;2.42;;
21084;SDS011;34247;50.064;19.970;2022-12-29T07:20:14;2.53;;;2.33;;
21084;SDS011;34247;50.064;19.970;2022-12-29T07:21:29;2.78;;;2.58;;
21084;SDS011;34247;50.064;19.970;2022-12-29T07:22:36;2.60;;;2.40;;
21084;SDS011;34247;50.064;19.970;2022-12-29T07:23:45;2.85;;;2.65;;
21084;SDS011;34247;50.064;19.970;2022-12-29T07:24:50;3.17;;;2.50;;
21084;SDS011;34247;50.064;19.970;2022-12-29T07:26:02;2.65;;;2.45;;
21084;SDS011;34247;50.064;19.970;2022-12-29T07:27:13;2.60;;;2.35;;
21084;SDS011;34247;50.064;19.970;2022-12-29T07:28:20;5.07;;;2.22;;
21084;SDS011;34247;50.064;19.970;2022-12-29T07:29:26;2.55;;;2.38;;
21084;SDS011;34247;50.064;19.970;2022-12-29T07:30:32;3.28;;;2.40;;